Brookings, Oregon
Current Conditions -  °F | °C
As of 6:56 AM on Monday 24 Nov 2014 (Local Time) from KBOK Reporting Station
Overcast Overcast  
Wind Chill: 44°   Ceiling: 6500
Heat Index: 44°   Visibility: 10mi
Dew Point: 44°   Wind: 0mph
Humidity: 100%   Direction: NA
Pressure: 30.37"   Gusts: NA
Location:  42.05°N, 124.28°W
Report Text: KBOK 241456Z AUTO 00000KT 10SM OVC065 07/07 A3037 RMK AO2 53001 T00660066 SLP288
Loading
Personal Weather Stations






























Interactive Weather Map New forecast layout! Learn more

10-Day Weather Forecast

Advertisements
Track Severe Weather on mobile